Inriville, Argentina
Current Conditions -  °F | °C
As of 7:00 PM on Wednesday 22 Oct 2014 (Local Time) from SAAR Reporting Station
Clear Clear  
Wind Chill: 84°   Ceiling: Unl
Heat Index: 84°   Visibility: 6mi
Dew Point: 54°   Wind: 7mph
Humidity: 35%   Direction: 360°N
Pressure: 29.91"   Gusts: NA
Location:  32.94°S, 62.29°W
Report Text: SAAR 222200Z 36006KT CAVOK 29/12 Q1013
Loading
Personal Weather Stations






























Interactive Weather Map New forecast layout! Learn more

10-Day Weather Forecast

Advertisements
Track Severe Weather on mobile